Time;durP1;ratioP1;P1;durP2;ratioP2;P2;SDS_P1;SDS_P2;PMS_P1;PMS_P2;Temp;Humidity;BMP_temperature;BMP_pressure;BME280_temperature;BME280_humidity;BME280_pressure;Samples;Min_cycle;Max_cycle;Signal;HPM_P1;HPM_P2
2022/02/12 00:00:22;;;;;;;;;;;4.40;99.90;;;;;;5053976;28;19976;-79
2022/02/12 00:02:49;;;;;;;;;;;4.50;99.90;;;;;;5053877;28;19917;-79
2022/02/12 00:05:16;;;;;;;;;;;4.30;99.90;;;;;;5054360;28;20290;-79
2022/02/12 00:07:42;;;;;;;;;;;4.10;99.90;;;;;;5054073;28;20349;-79
2022/02/12 00:10:08;;;;;;;;;;;3.80;99.90;;;;;;5054143;28;19956;-79
2022/02/12 00:12:33;;;;;;;;;;;3.70;99.90;;;;;;5053160;28;19917;-79
2022/02/12 00:14:59;;;;;;;;;;;3.60;99.90;;;;;;5053787;28;20297;-79
2022/02/12 00:17:24;;;;;;;;;;;3.80;99.90;;;;;;5053519;28;19935;-79
2022/02/12 00:19:50;;;;;;;;;;;4.00;99.90;;;;;;5054031;28;19908;-80
2022/02/12 00:22:16;;;;;;;;;;;4.10;99.90;;;;;;5053533;28;19935;-79
2022/02/12 00:24:41;;;;;;;;;;;3.90;99.90;;;;;;5035782;28;20266;-79
2022/02/12 00:27:07;;;;;;;;;;;3.90;99.90;;;;;;5053630;28;19909;-79
2022/02/12 00:29:32;;;;;;;;;;;4.00;99.90;;;;;;5053590;28;20028;-80
2022/02/12 00:31:58;;;;;;;;;;;3.90;99.90;;;;;;5053782;28;19970;-80
2022/02/12 00:34:24;;;;;;;;;;;3.70;99.90;;;;;;5053628;28;19915;-79
2022/02/12 00:36:49;;;;;;;;;;;3.60;99.90;;;;;;5053618;28;19927;-79
2022/02/12 00:39:15;;;;;;;;;;;3.60;99.90;;;;;;5035592;28;19909;-79
2022/02/12 00:41:41;;;;;;;;;;;3.60;99.90;;;;;;5035539;28;19913;-79
2022/02/12 00:44:06;;;;;;;;;;;3.50;99.90;;;;;;5053438;28;19908;-79
2022/02/12 00:46:32;;;;;;;;;;;3.40;99.90;;;;;;5053528;28;20364;-79
2022/02/12 00:48:58;;;;;;;;;;;3.30;99.90;;;;;;5053595;28;20361;-79
2022/02/12 00:51:23;;;;;;;;;;;3.20;99.90;;;;;;5053435;28;20397;-80
2022/02/12 00:53:49;;;;;;;;;;;3.30;99.90;;;;;;5053284;28;19952;-79
2022/02/12 00:56:15;;;;;;;;;;;3.60;99.90;;;;;;5053335;28;19909;-79
2022/02/12 00:58:40;;;;;;;;;;;3.70;99.90;;;;;;5053302;28;19918;-80
2022/02/12 01:01:06;;;;;;;;;;;3.80;99.90;;;;;;5053205;28;20373;-79
2022/02/12 01:03:31;;;;;;;;;;;3.90;99.90;;;;;;5053450;28;19909;-79
2022/02/12 01:05:57;;;;;;;;;;;3.90;99.90;;;;;;5053235;28;20392;-79
2022/02/12 01:08:23;;;;;;;;;;;3.90;99.90;;;;;;5053777;28;19940;-79
2022/02/12 01:10:49;;;;;;;;;;;3.80;99.90;;;;;;5053319;28;19909;-80
2022/02/12 01:13:14;;;;;;;;;;;3.70;99.90;;;;;;5053224;28;19955;-79
2022/02/12 01:15:40;;;;;;;;;;;3.40;99.90;;;;;;5052861;28;19909;-79
2022/02/12 01:18:06;;;;;;;;;;;3.40;99.90;;;;;;5034933;28;19925;-80
2022/02/12 01:20:34;;;;;;;;;;;3.40;99.90;;;;;;5053141;28;19909;-79
2022/02/12 01:23:00;;;;;;;;;;;3.30;99.90;;;;;;5053445;28;19952;-79
2022/02/12 01:25:26;;;;;;;;;;;3.20;99.90;;;;;;5056939;28;20368;-79
2022/02/12 01:27:51;;;;;;;;;;;3.20;99.90;;;;;;5056823;28;19968;-79
2022/02/12 01:30:17;;;;;;;;;;;3.20;99.90;;;;;;5056785;28;19944;-79
2022/02/12 01:32:42;;;;;;;;;;;3.30;99.90;;;;;;5056905;28;19912;-80
2022/02/12 01:35:08;;;;;;;;;;;3.00;99.90;;;;;;5056690;28;19909;-79
2022/02/12 01:37:35;;;;;;;;;;;3.20;99.90;;;;;;5056762;28;19909;-79
2022/02/12 01:40:00;;;;;;;;;;;3.30;99.90;;;;;;5056633;28;19935;-79
2022/02/12 01:42:28;;;;;;;;;;;3.10;99.90;;;;;;5056459;28;19986;-79
2022/02/12 01:44:53;;;;;;;;;;;2.80;99.90;;;;;;5038606;28;19916;-79
2022/02/12 01:47:19;;;;;;;;;;;2.90;99.90;;;;;;5056480;28;19912;-79
2022/02/12 01:49:45;;;;;;;;;;;2.80;99.90;;;;;;5056409;28;19909;-79
2022/02/12 01:52:11;;;;;;;;;;;3.10;99.90;;;;;;5056332;28;19908;-79
2022/02/12 01:54:37;;;;;;;;;;;3.20;99.90;;;;;;5056318;28;20426;-79
2022/02/12 01:57:03;;;;;;;;;;;3.20;99.90;;;;;;5056350;28;19913;-80
2022/02/12 01:59:30;;;;;;;;;;;3.00;99.90;;;;;;5056455;28;20074;-80
2022/02/12 02:01:55;;;;;;;;;;;3.00;99.90;;;;;;5056261;28;19920;-79
2022/02/12 02:04:21;;;;;;;;;;;3.10;99.90;;;;;;5056237;28;19909;-80
2022/02/12 02:06:47;;;;;;;;;;;3.20;99.90;;;;;;5056308;28;20373;-80
2022/02/12 02:09:17;;;;;;;;;;;2.90;99.90;;;;;;5056228;28;20056;-79
2022/02/12 02:11:43;;;;;;;;;;;2.70;99.90;;;;;;5056041;28;19962;-80
2022/02/12 02:14:08;;;;;;;;;;;2.60;99.90;;;;;;5055968;28;19913;-79
2022/02/12 02:16:34;;;;;;;;;;;2.80;99.90;;;;;;5037880;28;19997;-79
2022/02/12 02:19:00;;;;;;;;;;;2.80;99.90;;;;;;5055906;28;20399;-79
2022/02/12 02:21:27;;;;;;;;;;;3.10;99.90;;;;;;5055793;28;20392;-79
2022/02/12 02:23:53;;;;;;;;;;;2.90;99.90;;;;;;5055806;28;20319;-79
2022/02/12 02:26:19;;;;;;;;;;;2.80;99.90;;;;;;5056364;28;19909;-79
2022/02/12 02:28:45;;;;;;;;;;;2.80;99.90;;;;;;5055742;28;19912;-79
2022/02/12 02:31:10;;;;;;;;;;;2.70;99.90;;;;;;5055661;28;20288;-79
2022/02/12 02:33:36;;;;;;;;;;;2.50;99.90;;;;;;5055629;28;19952;-79
2022/02/12 02:36:02;;;;;;;;;;;2.40;99.90;;;;;;5055264;28;19954;-79
2022/02/12 02:38:28;;;;;;;;;;;2.70;99.90;;;;;;5055714;28;20369;-79
2022/02/12 02:40:54;;;;;;;;;;;2.80;99.90;;;;;;5037515;28;20422;-79
2022/02/12 02:43:21;;;;;;;;;;;2.70;99.90;;;;;;5055455;28;19913;-79
2022/02/12 02:45:46;;;;;;;;;;;2.40;99.90;;;;;;5055406;28;19954;-79
2022/02/12 02:48:12;;;;;;;;;;;2.30;99.90;;;;;;5055543;28;19909;-79
2022/02/12 02:56:12;;;;;;;;;;;2.30;99.90;;;;;;5054948;28;20289;-79
2022/02/12 02:58:39;;;;;;;;;;;2.30;99.90;;;;;;5037016;28;20305;-79
2022/02/12 03:01:06;;;;;;;;;;;2.50;99.90;;;;;;5055091;28;19913;-80
2022/02/12 03:03:32;;;;;;;;;;;2.40;99.90;;;;;;5037110;28;20285;-79
2022/02/12 03:05:58;;;;;;;;;;;2.20;99.90;;;;;;5037045;28;19909;-80
2022/02/12 03:08:24;;;;;;;;;;;2.30;99.90;;;;;;5055105;28;19909;-79
2022/02/12 03:10:50;;;;;;;;;;;2.20;99.90;;;;;;5054866;28;19913;-80
2022/02/12 03:13:16;;;;;;;;;;;2.10;99.90;;;;;;5054965;28;19915;-79
2022/02/12 03:15:41;;;;;;;;;;;2.10;99.90;;;;;;5054570;28;19991;-80
2022/02/12 03:18:07;;;;;;;;;;;2.20;99.90;;;;;;5054734;28;20289;-80
2022/02/12 03:20:33;;;;;;;;;;;2.40;99.90;;;;;;5054845;28;19909;-79
2022/02/12 03:22:59;;;;;;;;;;;2.50;99.90;;;;;;5054920;28;19913;-79
2022/02/12 03:25:24;;;;;;;;;;;2.20;99.90;;;;;;5054568;28;20365;-80
2022/02/12 03:27:53;;;;;;;;;;;2.30;99.90;;;;;;5054561;28;20322;-79
2022/02/12 03:30:19;;;;;;;;;;;2.50;99.90;;;;;;5054490;28;20317;-79
2022/02/12 03:32:45;;;;;;;;;;;2.60;99.90;;;;;;5054392;28;19951;-79
2022/02/12 03:35:11;;;;;;;;;;;2.40;99.90;;;;;;5054419;28;19908;-79
2022/02/12 03:37:37;;;;;;;;;;;2.10;99.90;;;;;;5054305;28;19951;-80
2022/02/12 03:40:03;;;;;;;;;;;2.00;99.90;;;;;;5054317;28;20333;-79
2022/02/12 03:42:29;;;;;;;;;;;1.90;99.90;;;;;;5054099;28;20266;-79
2022/02/12 03:44:54;;;;;;;;;;;2.10;99.90;;;;;;5054199;28;19916;-79
2022/02/12 03:47:20;;;;;;;;;;;2.20;99.90;;;;;;5053211;28;20013;-79
2022/02/12 03:49:46;;;;;;;;;;;2.20;99.90;;;;;;5054261;28;19959;-79
2022/02/12 03:52:11;;;;;;;;;;;2.10;99.90;;;;;;5054074;28;20280;-79
2022/02/12 03:54:37;;;;;;;;;;;1.90;99.90;;;;;;5036111;28;20419;-79
2022/02/12 03:57:03;;;;;;;;;;;1.70;99.90;;;;;;5054005;28;19916;-80
2022/02/12 03:59:28;;;;;;;;;;;1.60;99.90;;;;;;5054111;28;20280;-79
2022/02/12 04:01:54;;;;;;;;;;;1.60;99.90;;;;;;5035987;28;19912;-79
2022/02/12 04:04:19;;;;;;;;;;;1.60;99.90;;;;;;5035985;28;19952;-79
2022/02/12 04:06:45;;;;;;;;;;;1.70;99.90;;;;;;5053820;28;19909;-79
2022/02/12 04:09:11;;;;;;;;;;;1.70;99.90;;;;;;5053796;28;19999;-79
2022/02/12 04:11:36;;;;;;;;;;;1.50;99.90;;;;;;5053793;28;19908;-79
2022/02/12 04:14:02;;;;;;;;;;;1.40;99.90;;;;;;5053824;28;20021;-79
2022/02/12 04:16:28;;;;;;;;;;;1.40;99.90;;;;;;5035674;28;19927;-79
2022/02/12 04:18:53;;;;;;;;;;;1.70;99.90;;;;;;5035774;28;19915;-79
2022/02/12 04:21:19;;;;;;;;;;;1.70;99.90;;;;;;5053642;28;19913;-79
2022/02/12 04:23:45;;;;;;;;;;;1.80;99.90;;;;;;5035773;28;20024;-79
2022/02/12 04:26:12;;;;;;;;;;;1.70;99.90;;;;;;5053590;28;20416;-80
2022/02/12 04:28:38;;;;;;;;;;;1.60;99.90;;;;;;5035696;28;20007;-79
2022/02/12 04:31:04;;;;;;;;;;;1.40;99.90;;;;;;5035597;28;19948;-79
2022/02/12 04:33:30;;;;;;;;;;;1.20;99.90;;;;;;5053489;28;19919;-80
2022/02/12 04:35:55;;;;;;;;;;;1.10;99.90;;;;;;5053491;28;19978;-79
2022/02/12 04:38:21;;;;;;;;;;;1.10;99.90;;;;;;5035446;28;19916;-79
2022/02/12 04:40:46;;;;;;;;;;;1.20;99.90;;;;;;5053521;28;19909;-79
2022/02/12 04:43:12;;;;;;;;;;;1.10;99.90;;;;;;5053379;28;20280;-79
2022/02/12 04:45:37;;;;;;;;;;;1.10;99.90;;;;;;5053465;28;19909;-80
2022/02/12 04:48:03;;;;;;;;;;;1.30;99.90;;;;;;5053461;28;19956;-80
2022/02/12 04:50:29;;;;;;;;;;;1.60;99.90;;;;;;5053758;28;19913;-79
2022/02/12 04:52:55;;;;;;;;;;;1.60;99.90;;;;;;5053509;28;19924;-79
2022/02/12 04:55:21;;;;;;;;;;;1.70;99.90;;;;;;5053338;28;19909;-79
2022/02/12 04:57:46;;;;;;;;;;;1.60;99.90;;;;;;5035458;28;19916;-79
2022/02/12 05:00:12;;;;;;;;;;;1.40;99.90;;;;;;5057254;28;19909;-79
2022/02/12 05:02:40;;;;;;;;;;;1.30;99.90;;;;;;5057598;28;19960;-79
2022/02/12 05:05:06;;;;;;;;;;;1.10;99.90;;;;;;5057402;28;19912;-79
2022/02/12 05:07:31;;;;;;;;;;;0.90;99.90;;;;;;5057095;28;20008;-79
2022/02/12 05:09:57;;;;;;;;;;;0.70;99.90;;;;;;5057224;28;19931;-79
2022/02/12 05:12:23;;;;;;;;;;;0.50;99.90;;;;;;5057102;28;19912;-79
2022/02/12 05:14:48;;;;;;;;;;;0.50;99.90;;;;;;5056779;28;19912;-79
2022/02/12 05:17:14;;;;;;;;;;;0.50;99.90;;;;;;5056870;28;20340;-80
2022/02/12 05:19:39;;;;;;;;;;;0.50;99.90;;;;;;5056900;28;19936;-79
2022/02/12 05:22:05;;;;;;;;;;;0.50;99.90;;;;;;5056833;28;20369;-80
2022/02/12 05:24:30;;;;;;;;;;;0.50;99.90;;;;;;5038980;28;19913;-79
2022/02/12 05:26:56;;;;;;;;;;;0.50;99.90;;;;;;5056996;28;19936;-80
2022/02/12 05:29:21;;;;;;;;;;;0.50;99.90;;;;;;5056764;28;20383;-79
2022/02/12 05:31:47;;;;;;;;;;;0.50;99.90;;;;;;5056861;28;19995;-79
2022/02/12 05:34:13;;;;;;;;;;;0.70;99.90;;;;;;5056734;28;19909;-79
2022/02/12 05:36:38;;;;;;;;;;;1.00;99.90;;;;;;5056658;28;19916;-80
2022/02/12 05:39:05;;;;;;;;;;;1.20;99.90;;;;;;5056655;28;19916;-79
2022/02/12 05:41:31;;;;;;;;;;;1.30;99.90;;;;;;5056504;28;20011;-79
2022/02/12 05:43:56;;;;;;;;;;;1.20;99.90;;;;;;5056587;28;19915;-79
2022/02/12 05:46:22;;;;;;;;;;;0.90;99.90;;;;;;5056482;28;20336;-79
2022/02/12 05:48:48;;;;;;;;;;;0.90;99.90;;;;;;5056605;28;19916;-79
2022/02/12 05:51:18;;;;;;;;;;;1.00;99.90;;;;;;5038402;28;19970;-79
2022/02/12 05:53:44;;;;;;;;;;;1.00;99.90;;;;;;5038297;28;19909;-80
2022/02/12 05:56:09;;;;;;;;;;;0.70;99.90;;;;;;5056322;28;20331;-79
2022/02/12 05:58:35;;;;;;;;;;;0.70;99.90;;;;;;5056702;28;19955;-79
2022/02/12 06:01:00;;;;;;;;;;;0.60;99.90;;;;;;5056202;28;19913;-79
2022/02/12 06:03:26;;;;;;;;;;;0.50;99.90;;;;;;5056218;28;19916;-79
2022/02/12 06:05:51;;;;;;;;;;;0.30;99.90;;;;;;5056368;28;19916;-80
2022/02/12 06:08:17;;;;;;;;;;;0.20;99.90;;;;;;5056116;28;20483;-79
2022/02/12 06:10:43;;;;;;;;;;;0.10;99.90;;;;;;5055439;28;19916;-79
2022/02/12 06:13:08;;;;;;;;;;;0.00;99.90;;;;;;5056367;28;20365;-79
2022/02/12 06:15:36;;;;;;;;;;;-0.10;99.90;;;;;;5055821;28;19916;-79
2022/02/12 06:18:04;;;;;;;;;;;0.20;99.90;;;;;;5055964;28;19908;-79
2022/02/12 06:20:30;;;;;;;;;;;0.20;99.90;;;;;;5055905;28;19912;-80
2022/02/12 06:22:55;;;;;;;;;;;0.30;99.90;;;;;;5055808;28;20262;-79
2022/02/12 06:25:21;;;;;;;;;;;0.60;99.90;;;;;;5055794;28;19987;-79
2022/02/12 06:27:47;;;;;;;;;;;0.70;99.90;;;;;;5037903;28;20280;-79
2022/02/12 06:30:12;;;;;;;;;;;0.80;99.90;;;;;;5037827;28;19908;-80
2022/02/12 06:32:38;;;;;;;;;;;1.00;99.90;;;;;;5055650;28;19908;-79
2022/02/12 06:35:04;;;;;;;;;;;1.00;99.90;;;;;;5055639;28;19909;-79
2022/02/12 06:37:30;;;;;;;;;;;1.00;99.90;;;;;;5055678;28;20434;-79
2022/02/12 06:39:55;;;;;;;;;;;0.90;99.90;;;;;;5055548;28;19909;-79
2022/02/12 06:42:21;;;;;;;;;;;0.90;99.90;;;;;;5055440;28;19913;-80
2022/02/12 06:44:46;;;;;;;;;;;0.90;99.90;;;;;;5055648;28;19955;-79
2022/02/12 06:47:12;;;;;;;;;;;0.70;99.90;;;;;;5037558;28;19958;-79
2022/02/12 06:49:38;;;;;;;;;;;0.70;99.90;;;;;;5055529;28;19912;-80
2022/02/12 06:52:04;;;;;;;;;;;0.70;99.90;;;;;;5055460;28;19909;-79
2022/02/12 06:54:30;;;;;;;;;;;0.70;99.90;;;;;;5055211;28;19917;-79
2022/02/12 06:56:56;;;;;;;;;;;0.70;99.90;;;;;;5037290;28;20336;-79
2022/02/12 06:59:22;;;;;;;;;;;0.70;99.90;;;;;;5055148;28;19956;-80
2022/02/12 07:01:48;;;;;;;;;;;0.60;99.90;;;;;;5055132;28;20274;-80
2022/02/12 07:04:13;;;;;;;;;;;0.50;99.90;;;;;;5037116;28;20285;-79
2022/02/12 07:06:40;;;;;;;;;;;0.60;99.90;;;;;;5054999;28;19948;-79
2022/02/12 07:09:05;;;;;;;;;;;0.60;99.90;;;;;;5037076;28;19908;-79
2022/02/12 07:11:31;;;;;;;;;;;0.70;99.90;;;;;;5054844;28;19920;-79
2022/02/12 07:13:57;;;;;;;;;;;0.70;99.90;;;;;;5054905;28;19909;-79
2022/02/12 07:16:23;;;;;;;;;;;0.70;99.90;;;;;;5054640;28;19928;-79
2022/02/12 07:18:49;;;;;;;;;;;0.70;99.90;;;;;;5055027;28;19909;-79
2022/02/12 07:21:14;;;;;;;;;;;0.60;99.90;;;;;;5054646;28;19999;-79
2022/02/12 07:23:40;;;;;;;;;;;0.40;99.90;;;;;;5054718;28;19951;-79
2022/02/12 07:26:06;;;;;;;;;;;0.40;99.90;;;;;;5054743;28;19912;-79
2022/02/12 07:28:32;;;;;;;;;;;0.30;99.90;;;;;;5036752;28;19935;-79
2022/02/12 07:30:58;;;;;;;;;;;0.50;99.90;;;;;;5036880;28;19909;-80
2022/02/12 07:33:26;;;;;;;;;;;0.70;99.90;;;;;;5054857;28;19944;-79
2022/02/12 07:35:52;;;;;;;;;;;0.60;99.90;;;;;;5036620;28;19908;-79
2022/02/12 07:38:18;;;;;;;;;;;0.50;99.90;;;;;;5036578;28;19915;-80
2022/02/12 07:40:43;;;;;;;;;;;0.40;99.90;;;;;;5054398;28;20358;-79
2022/02/12 07:43:09;;;;;;;;;;;0.30;99.90;;;;;;5036529;28;19908;-79
2022/02/12 07:45:35;;;;;;;;;;;0.50;99.90;;;;;;5036444;28;20368;-79
2022/02/12 07:48:00;;;;;;;;;;;1.20;99.90;;;;;;5054324;28;19909;-80
2022/02/12 07:50:26;;;;;;;;;;;1.80;99.90;;;;;;5054254;28;19998;-80
2022/02/12 07:52:52;;;;;;;;;;;2.40;99.90;;;;;;5054196;28;19919;-80
2022/02/12 07:55:18;;;;;;;;;;;3.20;99.90;;;;;;5054166;28;19909;-80
2022/02/12 07:57:44;;;;;;;;;;;3.20;99.90;;;;;;5036247;28;20396;-80
2022/02/12 08:00:10;;;;;;;;;;;3.90;99.90;;;;;;5054045;28;19967;-80
2022/02/12 08:02:36;;;;;;;;;;;4.60;99.90;;;;;;5036162;28;19909;-80
2022/02/12 08:05:01;;;;;;;;;;;4.80;99.90;;;;;;5036146;28;20327;-80
2022/02/12 08:07:30;;;;;;;;;;;4.40;99.90;;;;;;5053960;28;19908;-80
2022/02/12 08:09:56;;;;;;;;;;;4.70;99.90;;;;;;5054010;28;19909;-80
2022/02/12 08:12:22;;;;;;;;;;;5.40;99.90;;;;;;5053810;28;20430;-80
2022/02/12 08:14:52;;;;;;;;;;;5.90;99.30;;;;;;5035949;28;19908;-80
2022/02/12 08:17:18;;;;;;;;;;;6.60;98.30;;;;;;5053701;28;19920;-80
2022/02/12 08:19:44;;;;;;;;;;;6.80;97.00;;;;;;5053770;28;19988;-80
2022/02/12 08:22:13;;;;;;;;;;;7.00;96.60;;;;;;5053765;28;20062;-80
2022/02/12 08:24:39;;;;;;;;;;;7.10;96.70;;;;;;5053622;28;19909;-80
2022/02/12 08:27:05;;;;;;;;;;;7.20;96.30;;;;;;5053642;28;19909;-80
2022/02/12 08:29:30;;;;;;;;;;;6.50;96.50;;;;;;5053876;28;19952;-80
2022/02/12 08:31:59;;;;;;;;;;;6.90;97.70;;;;;;5053533;28;19912;-80
2022/02/12 08:34:25;;;;;;;;;;;7.30;96.80;;;;;;5052723;28;19908;-80
2022/02/12 08:36:51;;;;;;;;;;;7.90;96.00;;;;;;5053973;28;19991;-80
2022/02/12 08:39:17;;;;;;;;;;;8.50;94.70;;;;;;5053571;28;20364;-80
2022/02/12 08:41:43;;;;;;;;;;;9.00;93.60;;;;;;5053524;28;19915;-80
2022/02/12 08:44:09;;;;;;;;;;;9.20;92.80;;;;;;5053630;28;19963;-80
2022/02/12 08:46:34;;;;;;;;;;;9.50;92.40;;;;;;5053453;28;19960;-80
2022/02/12 08:49:00;;;;;;;;;;;9.90;91.30;;;;;;5054003;28;19967;-80
2022/02/12 08:51:26;;;;;;;;;;;10.00;90.90;;;;;;5053331;28;19913;-80
2022/02/12 08:53:51;;;;;;;;;;;10.80;90.20;;;;;;5053347;28;19976;-80
2022/02/12 08:56:17;;;;;;;;;;;11.50;86.90;;;;;;5053348;28;20003;-81
2022/02/12 08:58:43;;;;;;;;;;;11.00;87.30;;;;;;5053660;28;19908;-80
2022/02/12 09:01:09;;;;;;;;;;;10.80;86.80;;;;;;5053549;28;20380;-80
2022/02/12 09:03:34;;;;;;;;;;;10.60;86.60;;;;;;5053347;28;19936;-80
2022/02/12 09:06:00;;;;;;;;;;;9.90;88.20;;;;;;5035287;28;19959;-80
2022/02/12 09:08:26;;;;;;;;;;;9.30;90.00;;;;;;5053554;28;19908;-80
2022/02/12 09:10:52;;;;;;;;;;;8.60;91.20;;;;;;5053487;28;19909;-80
2022/02/12 09:13:18;;;;;;;;;;;8.80;91.20;;;;;;5053223;28;20332;-80
2022/02/12 09:15:43;;;;;;;;;;;8.30;91.60;;;;;;5035117;28;19909;-80
2022/02/12 09:18:09;;;;;;;;;;;7.70;92.10;;;;;;5053802;28;19904;-80
2022/02/12 09:20:35;;;;;;;;;;;6.80;93.40;;;;;;5053207;28;19909;-80
2022/02/12 09:23:00;;;;;;;;;;;6.80;94.30;;;;;;5053225;28;19967;-79
2022/02/12 09:25:26;;;;;;;;;;;6.80;94.30;;;;;;5053111;28;19962;-80
2022/02/12 09:27:51;;;;;;;;;;;6.70;94.30;;;;;;5053106;28;19909;-80
2022/02/12 09:30:17;;;;;;;;;;;6.80;94.60;;;;;;5053094;28;19909;-80
2022/02/12 09:32:42;;;;;;;;;;;6.90;94.60;;;;;;5052703;28;19913;-79
2022/02/12 09:35:08;;;;;;;;;;;7.40;94.10;;;;;;5053110;28;19909;-80
2022/02/12 09:37:34;;;;;;;;;;;8.50;93.30;;;;;;5053252;28;19909;-80
2022/02/12 09:39:59;;;;;;;;;;;10.30;91.50;;;;;;5052912;28;20328;-80
2022/02/12 09:42:25;;;;;;;;;;;11.90;86.70;;;;;;5052830;28;19908;-80
2022/02/12 09:44:51;;;;;;;;;;;13.20;82.20;;;;;;5054825;28;19909;-80
2022/02/12 09:47:35;;;;;;;;;;;14.50;77.50;;;;;;5056574;28;19909;-81
2022/02/12 09:50:01;;;;;;;;;;;14.90;73.40;;;;;;5056486;28;19913;-81
2022/02/12 09:52:30;;;;;;;;;;;15.00;71.20;;;;;;5056363;28;20315;-81
2022/02/12 09:54:56;;;;;;;;;;;15.70;70.30;;;;;;5056500;28;19954;-81
2022/02/12 09:57:21;;;;;;;;;;;15.80;68.80;;;;;;5056679;28;19909;-81
2022/02/12 09:59:47;;;;;;;;;;;16.40;67.80;;;;;;5056340;28;19954;-81
2022/02/12 10:02:19;;;;;;;;;;;16.90;65.10;;;;;;5056379;28;19972;-81
2022/02/12 10:04:45;;;;;;;;;;;16.60;63.40;;;;;;5021803;28;19959;-81
2022/02/12 10:07:23;;;;;;;;;;;15.00;64.40;;;;;;5056178;28;19913;-81
2022/02/12 10:10:08;;;;;;;;;;;13.10;69.70;;;;;;5038299;28;19908;-80
2022/02/12 10:12:34;;;;;;;;;;;12.90;70.50;;;;;;5055909;28;19943;-80
2022/02/12 10:14:59;;;;;;;;;;;13.60;70.40;;;;;;5038145;28;19913;-81
2022/02/12 10:17:25;;;;;;;;;;;14.40;68.40;;;;;;5055622;28;20443;-81
2022/02/12 10:19:50;;;;;;;;;;;14.80;67.90;;;;;;5055920;28;19948;-80
2022/02/12 10:22:17;;;;;;;;;;;14.20;67.60;;;;;;5055898;28;20365;-80
2022/02/12 10:25:09;;;;;;;;;;;14.00;68.30;;;;;;5055983;28;19909;-80
2022/02/12 10:27:37;;;;;;;;;;;14.80;68.20;;;;;;5051798;28;19923;-81
2022/02/12 10:30:04;;;;;;;;;;;14.70;66.80;;;;;;5056317;28;19909;-80
2022/02/12 10:32:30;;;;;;;;;;;14.30;66.60;;;;;;5055728;28;20071;-81
2022/02/12 10:34:58;;;;;;;;;;;14.50;67.00;;;;;;5037692;28;20377;-81
2022/02/12 10:37:25;;;;;;;;;;;14.10;66.50;;;;;;5037664;28;19909;-81
2022/02/12 10:39:55;;;;;;;;;;;14.30;67.10;;;;;;5037670;28;19909;-81
2022/02/12 10:42:22;;;;;;;;;;;14.50;67.80;;;;;;5055417;28;19913;-80
2022/02/12 10:44:48;;;;;;;;;;;13.90;66.60;;;;;;5055373;28;19916;-81
2022/02/12 10:47:13;;;;;;;;;;;14.70;66.40;;;;;;5055474;28;19909;-80
2022/02/12 10:49:40;;;;;;;;;;;15.00;65.70;;;;;;5037493;28;19909;-81
2022/02/12 10:52:06;;;;;;;;;;;15.60;65.50;;;;;;5055676;28;19962;-80
2022/02/12 10:54:51;;;;;;;;;;;14.20;64.80;;;;;;5055227;28;19913;-80
2022/02/12 10:57:17;;;;;;;;;;;15.20;66.00;;;;;;5036754;28;19909;-81
2022/02/12 10:59:44;;;;;;;;;;;14.90;64.60;;;;;;5055203;28;19959;-80
2022/02/12 11:02:15;;;;;;;;;;;14.60;66.40;;;;;;5055093;28;19971;-80
2022/02/12 11:04:41;;;;;;;;;;;14.60;65.50;;;;;;5036980;28;20361;-81
2022/02/12 11:07:08;;;;;;;;;;;15.60;63.70;;;;;;5055072;28;19913;-81
2022/02/12 11:09:33;;;;;;;;;;;16.30;63.90;;;;;;5055175;28;19955;-81
2022/02/12 11:12:04;;;;;;;;;;;16.00;63.10;;;;;;5054967;28;20334;-80
2022/02/12 11:14:33;;;;;;;;;;;17.00;61.80;;;;;;5036779;28;19999;-81
2022/02/12 11:17:31;;;;;;;;;;;15.70;60.60;;;;;;5054715;28;19921;-80
2022/02/12 11:19:57;;;;;;;;;;;18.10;60.50;;;;;;5010895;28;19909;-80
2022/02/12 11:22:23;;;;;;;;;;;18.70;59.00;;;;;;5036768;28;19913;-80
2022/02/12 11:24:48;;;;;;;;;;;19.00;57.40;;;;;;5036914;28;19916;-81
2022/02/12 11:27:18;;;;;;;;;;;19.80;56.30;;;;;;5055002;28;19958;-80
2022/02/12 11:29:45;;;;;;;;;;;19.70;56.30;;;;;;5054620;28;19916;-80
2022/02/12 11:32:12;;;;;;;;;;;21.30;55.00;;;;;;5054602;28;19912;-81
2022/02/12 11:34:43;;;;;;;;;;;21.20;52.40;;;;;;5054568;28;20038;-80
2022/02/12 11:37:12;;;;;;;;;;;22.50;49.60;;;;;;5054625;28;19916;-80
2022/02/12 11:39:38;;;;;;;;;;;22.70;49.90;;;;;;5054888;28;20000;-80
2022/02/12 11:42:07;;;;;;;;;;;22.10;49.10;;;;;;5053623;28;20009;-80
2022/02/12 11:44:42;;;;;;;;;;;21.60;49.10;;;;;;5054368;28;19916;-81
2022/02/12 11:47:08;;;;;;;;;;;22.50;47.50;;;;;;5036267;28;19913;-80
2022/02/12 11:49:35;;;;;;;;;;;23.10;47.20;;;;;;5054251;28;19955;-80
2022/02/12 11:52:04;;;;;;;;;;;21.20;47.10;;;;;;5054188;28;19912;-80
2022/02/12 11:54:57;;;;;;;;;;;22.40;46.40;;;;;;5054115;28;19913;-81
2022/02/12 11:57:25;;;;;;;;;;;23.80;46.40;;;;;;5048559;28;19908;-80
2022/02/12 12:00:11;;;;;;;;;;;23.20;46.00;;;;;;5052137;28;20008;-81
2022/02/12 12:02:37;;;;;;;;;;;23.30;44.70;;;;;;5051531;28;19920;-80
2022/02/12 12:05:19;;;;;;;;;;;25.80;44.50;;;;;;5052365;28;19955;-81
2022/02/12 12:08:00;;;;;;;;;;;26.00;42.50;;;;;;5052016;28;20361;-81
2022/02/12 12:10:35;;;;;;;;;;;25.10;41.00;;;;;;5034918;28;19909;-80
2022/02/12 12:13:25;;;;;;;;;;;25.70;41.40;;;;;;5054173;28;19952;-80
2022/02/12 12:15:55;;;;;;;;;;;25.20;42.00;;;;;;5053550;28;19925;-81
2022/02/12 12:18:21;;;;;;;;;;;25.80;40.60;;;;;;5054090;28;19908;-80
2022/02/12 12:20:47;;;;;;;;;;;23.70;40.80;;;;;;5053806;28;19909;-80
2022/02/12 12:23:15;;;;;;;;;;;26.60;42.40;;;;;;5035852;28;20011;-80
2022/02/12 12:25:53;;;;;;;;;;;25.10;41.10;;;;;;5053688;28;20432;-80
2022/02/12 12:28:25;;;;;;;;;;;26.60;41.90;;;;;;5035778;28;20381;-81
2022/02/12 12:30:51;;;;;;;;;;;26.30;40.40;;;;;;5035795;28;19960;-81
2022/02/12 12:33:16;;;;;;;;;;;26.20;41.30;;;;;;5035795;28;19982;-80
2022/02/12 12:35:49;;;;;;;;;;;26.40;41.00;;;;;;5053582;28;19987;-80
2022/02/12 12:38:14;;;;;;;;;;;26.00;39.50;;;;;;5053819;28;19959;-80
2022/02/12 12:40:40;;;;;;;;;;;25.80;40.40;;;;;;5053664;28;19912;-81
2022/02/12 12:43:07;;;;;;;;;;;25.40;40.30;;;;;;5053464;28;20313;-80
2022/02/12 12:45:38;;;;;;;;;;;26.50;40.10;;;;;;5053527;28;19909;-80
2022/02/12 12:48:04;;;;;;;;;;;26.40;39.40;;;;;;5053480;28;19909;-81
2022/02/12 12:50:34;;;;;;;;;;;26.60;39.90;;;;;;5035581;28;20294;-81
2022/02/12 12:53:05;;;;;;;;;;;26.70;39.80;;;;;;5053402;28;19996;-80
2022/02/12 12:55:30;;;;;;;;;;;26.70;40.40;;;;;;5035462;28;20377;-80
2022/02/12 12:57:56;;;;;;;;;;;26.60;40.70;;;;;;5053494;28;19938;-80
2022/02/12 13:00:22;;;;;;;;;;;27.20;40.00;;;;;;5053329;28;20288;-81
2022/02/12 13:02:52;;;;;;;;;;;23.80;39.80;;;;;;5053217;28;20365;-81
2022/02/12 13:05:19;;;;;;;;;;;24.50;41.20;;;;;;5053275;28;19996;-80
2022/02/12 13:07:46;;;;;;;;;;;23.80;41.90;;;;;;5035427;28;20319;-80
2022/02/12 13:10:12;;;;;;;;;;;22.70;44.20;;;;;;5035392;28;19908;-80
2022/02/12 13:12:39;;;;;;;;;;;19.70;46.40;;;;;;5035250;28;19909;-80
2022/02/12 13:15:06;;;;;;;;;;;20.60;47.30;;;;;;5035345;28;19956;-80
2022/02/12 13:17:37;;;;;;;;;;;19.30;48.20;;;;;;5052790;28;19991;-80
2022/02/12 13:20:04;;;;;;;;;;;19.90;47.80;;;;;;5055245;28;19996;-80
2022/02/12 13:22:32;;;;;;;;;;;20.10;44.70;;;;;;5056938;28;20358;-80
2022/02/12 13:24:58;;;;;;;;;;;19.20;46.30;;;;;;5057206;28;19948;-80
2022/02/12 13:27:24;;;;;;;;;;;21.40;45.40;;;;;;5056836;28;19975;-80
2022/02/12 13:29:50;;;;;;;;;;;20.40;46.20;;;;;;5057237;28;19975;-81
2022/02/12 13:32:16;;;;;;;;;;;19.00;45.30;;;;;;5056965;28;20381;-80
2022/02/12 13:34:47;;;;;;;;;;;18.20;46.80;;;;;;5056826;28;19912;-80
2022/02/12 13:37:12;;;;;;;;;;;18.40;47.70;;;;;;5038621;28;19909;-80
2022/02/12 13:39:50;;;;;;;;;;;19.10;47.90;;;;;;5056942;28;20423;-79
2022/02/12 13:42:19;;;;;;;;;;;18.80;49.20;;;;;;5056955;28;19912;-80
2022/02/12 13:44:45;;;;;;;;;;;16.80;50.60;;;;;;5056651;28;19909;-80
2022/02/12 13:47:10;;;;;;;;;;;19.70;49.00;;;;;;5056655;28;20318;-80
2022/02/12 13:49:37;;;;;;;;;;;19.60;48.60;;;;;;5038673;28;19909;-81
2022/02/12 13:52:04;;;;;;;;;;;18.70;48.40;;;;;;5056850;28;19916;-80
2022/02/12 13:54:30;;;;;;;;;;;18.60;49.20;;;;;;5056479;28;19944;-80
2022/02/12 13:56:57;;;;;;;;;;;18.20;50.00;;;;;;5056507;28;19913;-80
2022/02/12 13:59:23;;;;;;;;;;;18.30;50.50;;;;;;5056372;28;20372;-80
2022/02/12 14:01:49;;;;;;;;;;;17.00;50.50;;;;;;5056458;28;19920;-80
2022/02/12 14:04:15;;;;;;;;;;;18.80;52.20;;;;;;5056596;28;19908;-80
2022/02/12 14:06:43;;;;;;;;;;;20.20;49.40;;;;;;5056319;28;19921;-80
2022/02/12 14:09:14;;;;;;;;;;;19.40;48.40;;;;;;5056291;28;19915;-79
2022/02/12 14:11:44;;;;;;;;;;;20.80;48.40;;;;;;5038222;28;19916;-79
2022/02/12 14:14:13;;;;;;;;;;;20.80;48.40;;;;;;5056089;28;19909;-80
2022/02/12 14:16:42;;;;;;;;;;;21.50;47.60;;;;;;5055959;28;19921;-80
2022/02/12 14:19:08;;;;;;;;;;;20.00;49.70;;;;;;5055949;28;19913;-80
2022/02/12 14:21:34;;;;;;;;;;;19.90;49.40;;;;;;5055972;28;20428;-80
2022/02/12 14:23:59;;;;;;;;;;;19.10;49.10;;;;;;5055809;28;19909;-80
2022/02/12 14:26:25;;;;;;;;;;;19.00;50.00;;;;;;5056060;28;19908;-80
2022/02/12 14:28:51;;;;;;;;;;;19.20;50.60;;;;;;5055922;28;19920;-80